Time;durP1;ratioP1;P1;durP2;ratioP2;P2;SDS_P1;SDS_P2;PMS_P1;PMS_P2;Temp;Humidity;BMP_temperature;BMP_pressure;BME280_temperature;BME280_humidity;BME280_pressure;Samples;Min_cycle;Max_cycle;Signal;HPM_P1;HPM_P2
2023/09/30 00:01:19;;;;;;;10.30;5.90;;;17.30;76.50;;;17.74;52.04;95382.19;5020440;28;21023;-61
2023/09/30 00:03:46;;;;;;;21.93;5.73;;;17.30;76.90;;;17.76;52.44;95376.69;5021127;28;20532;-60
2023/09/30 00:06:14;;;;;;;11.30;6.00;;;17.40;77.00;;;17.77;52.51;95381.03;5019758;28;20457;-56
2023/09/30 00:08:43;;;;;;;11.83;5.80;;;17.40;77.10;;;17.79;52.22;95376.34;5024108;28;20468;-57
2023/09/30 00:11:10;;;;;;;11.03;6.03;;;17.40;77.10;;;17.80;52.40;95378.03;5022878;28;20464;-57
2023/09/30 00:13:38;;;;;;;18.03;6.10;;;17.40;77.30;;;17.82;52.70;95376.03;5024164;28;20492;-60
2023/09/30 00:16:05;;;;;;;12.53;6.23;;;17.40;77.10;;;17.82;52.42;95370.69;5025829;28;20461;-61
2023/09/30 00:18:33;;;;;;;9.93;6.67;;;17.40;77.00;;;17.82;52.70;95373.34;5020460;28;20966;-58
2023/09/30 00:21:00;;;;;;;6.63;5.50;;;17.40;77.10;;;17.83;52.72;95377.69;5016770;28;20484;-61
2023/09/30 00:23:28;;;;;;;29.43;6.40;;;17.40;77.10;;;17.85;52.61;95370.34;5022313;28;20552;-57
2023/09/30 00:25:57;;;;;;;22.13;6.90;;;17.40;77.10;;;17.88;52.26;95371.84;5018759;28;20473;-57
2023/09/30 00:28:24;;;;;;;9.70;6.40;;;17.40;77.10;;;17.86;52.23;95371.16;5021321;28;20456;-56
2023/09/30 00:30:51;;;;;;;15.77;6.33;;;17.40;77.30;;;17.87;52.35;95363.00;5021626;28;20466;-57
2023/09/30 00:33:19;;;;;;;19.83;6.90;;;17.50;77.90;;;17.88;52.57;95364.72;5026229;28;20521;-62
2023/09/30 00:35:46;;;;;;;7.73;5.90;;;17.50;78.10;;;17.92;52.51;95366.03;5027263;28;20480;-58
2023/09/30 00:38:14;;;;;;;9.87;6.17;;;17.50;78.30;;;17.95;52.55;95366.69;5022819;28;20544;-58
2023/09/30 00:40:48;;;;;;;16.13;9.50;;;17.50;78.50;;;17.96;52.61;95360.38;5022400;28;20480;-58
2023/09/30 00:43:21;;;;;;;22.17;10.77;;;17.50;77.90;;;17.94;51.94;95363.19;5023549;28;20544;-60
2023/09/30 00:45:49;;;;;;;27.70;14.57;;;17.50;77.20;;;17.91;51.78;95369.69;5019066;28;20542;-58
2023/09/30 00:48:16;;;;;;;22.57;11.23;;;17.50;76.90;;;17.91;51.78;95363.56;5024028;28;20465;-57
2023/09/30 00:50:43;;;;;;;22.77;11.80;;;17.50;76.80;;;17.92;51.58;95371.34;5024804;28;20484;-59
2023/09/30 00:53:11;;;;;;;25.23;9.43;;;17.50;77.10;;;17.96;52.14;95366.50;5023332;28;20488;-58
2023/09/30 00:55:38;;;;;;;17.77;9.20;;;17.50;77.60;;;17.99;52.56;95360.03;5017368;28;20480;-59
2023/09/30 00:58:05;;;;;;;15.13;8.03;;;17.50;77.50;;;18.00;52.12;95359.00;5023544;28;20454;-58
2023/09/30 01:00:34;;;;;;;26.70;12.20;;;17.60;77.60;;;18.01;52.27;95364.16;5018887;28;20485;-58
2023/09/30 01:03:03;;;;;;;25.93;11.40;;;17.60;77.20;;;18.03;52.11;95362.16;5021902;28;20445;-58
2023/09/30 01:05:31;;;;;;;29.00;12.00;;;17.60;77.30;;;18.07;52.00;95362.63;5021041;28;20476;-57
2023/09/30 01:07:58;;;;;;;14.07;7.70;;;17.60;77.30;;;18.09;52.24;95352.63;5022436;28;20453;-59
2023/09/30 01:10:26;;;;;;;14.83;8.40;;;17.60;77.80;;;18.11;52.55;95355.97;5026320;28;20534;-58
2023/09/30 01:12:53;;;;;;;20.90;7.70;;;17.70;78.00;;;18.13;52.03;95353.13;5020435;28;20576;-62
2023/09/30 01:15:20;;;;;;;20.70;7.97;;;17.70;78.30;;;18.15;52.67;95353.78;5022792;28;20548;-62
2023/09/30 01:17:49;;;;;;;14.00;6.37;;;17.70;78.40;;;18.16;52.50;95356.25;5022962;28;20479;-59
2023/09/30 01:20:19;;;;;;;22.83;7.73;;;17.70;78.40;;;18.17;52.19;95357.09;5022431;28;20579;-61
2023/09/30 01:22:49;;;;;;;18.97;6.83;;;17.70;78.50;;;18.19;52.54;95349.78;5019423;28;20450;-56
2023/09/30 01:25:16;;;;;;;23.30;6.80;;;17.70;78.60;;;18.18;52.84;95354.25;5020946;28;20472;-60
2023/09/30 01:27:44;;;;;;;21.33;6.87;;;17.80;78.80;;;18.18;52.11;95361.41;5019145;28;20453;-64
2023/09/30 01:30:13;;;;;;;10.37;5.17;;;17.80;78.40;;;18.14;52.26;95355.63;5021519;28;20476;-60
2023/09/30 01:32:40;;;;;;;8.37;6.30;;;17.80;78.40;;;18.14;52.92;95355.63;5022046;28;20452;-56
2023/09/30 01:35:09;;;;;;;9.13;5.77;;;17.70;78.90;;;18.14;52.96;95358.28;5018222;28;20980;-61
2023/09/30 01:37:36;;;;;;;22.93;6.23;;;17.70;78.70;;;18.15;52.64;95359.91;5018858;28;20497;-56
2023/09/30 01:40:10;;;;;;;12.90;6.90;;;17.70;80.10;;;18.16;53.05;95363.44;5021206;28;20469;-62
2023/09/30 01:42:38;;;;;;;12.60;6.50;;;17.70;79.50;;;18.17;52.58;95365.06;5022027;28;20441;-56
2023/09/30 01:45:07;;;;;;;13.57;6.80;;;17.80;79.60;;;18.16;53.18;95361.59;5021545;28;20465;-60
2023/09/30 01:47:34;;;;;;;17.87;7.50;;;17.80;79.60;;;18.17;53.19;95363.25;5020283;28;21155;-60
2023/09/30 01:50:01;;;;;;;13.33;6.63;;;17.80;79.70;;;18.16;53.26;95356.25;5017866;28;20473;-57
2023/09/30 01:52:28;;;;;;;12.77;7.20;;;17.70;79.70;;;18.15;52.61;95359.91;5019030;28;20453;-57
2023/09/30 01:54:56;;;;;;;17.00;7.67;;;17.80;79.70;;;18.16;53.04;95361.59;5020703;28;20496;-59
2023/09/30 01:57:24;;;;;;;9.83;7.10;;;17.70;79.80;;;18.15;52.69;95351.13;5018353;28;20584;-60
2023/09/30 01:59:52;;;;;;;26.50;8.07;;;17.80;80.00;;;18.15;52.95;95351.94;5020723;28;21013;-61
2023/09/30 02:02:19;;;;;;;30.10;7.23;;;17.70;80.00;;;18.14;52.68;95358.28;5023958;28;20471;-60
2023/09/30 02:04:46;;;;;;;15.13;7.67;;;17.70;79.90;;;18.12;53.33;95360.28;5023529;28;20483;-56
2023/09/30 02:07:13;;;;;;;13.60;7.13;;;17.70;80.00;;;18.10;52.78;95355.13;5021116;28;20446;-60
2023/09/30 02:09:41;;;;;;;11.37;6.17;;;17.70;80.00;;;18.07;52.98;95359.97;5018042;28;20478;-58
2023/09/30 02:12:09;;;;;;;9.43;6.33;;;17.70;80.00;;;18.03;52.90;95351.50;5020082;28;20454;-58
2023/09/30 02:14:39;;;;;;;18.03;7.10;;;17.60;80.20;;;17.99;53.56;95350.19;5020848;28;20542;-58
2023/09/30 02:17:06;;;;;;;11.43;7.97;;;17.60;80.30;;;17.97;53.45;95351.34;5025898;28;20499;-61
2023/09/30 02:19:33;;;;;;;20.50;7.37;;;17.60;80.50;;;17.92;53.58;95347.41;5023097;28;20532;-57
2023/09/30 02:22:01;;;;;;;15.60;7.20;;;17.50;80.70;;;17.87;53.41;95349.72;5012899;28;20458;-56
2023/09/30 02:24:28;;;;;;;27.27;6.70;;;17.50;80.90;;;17.84;53.86;95346.56;5018057;28;20552;-57
2023/09/30 02:26:55;;;;;;;19.43;6.40;;;17.40;81.00;;;17.79;53.93;95349.75;5021175;28;20839;-61
2023/09/30 02:29:22;;;;;;;12.17;7.03;;;17.40;81.20;;;17.73;53.55;95351.25;5017240;28;20469;-58
2023/09/30 02:31:52;;;;;;;12.23;6.90;;;17.40;81.30;;;17.69;54.04;95362.41;5021002;28;20515;-57
2023/09/30 02:34:19;;;;;;;19.80;7.97;;;17.30;81.50;;;17.66;54.04;95358.28;5017592;28;20493;-61
2023/09/30 02:36:47;;;;;;;10.53;6.70;;;17.30;81.90;;;17.61;53.78;95363.28;5020682;28;20452;-60
2023/09/30 02:39:16;;;;;;;10.73;6.20;;;17.20;81.60;;;17.59;54.13;95359.16;5018074;28;20493;-60
2023/09/30 02:41:43;;;;;;;10.63;7.60;;;17.20;81.80;;;17.53;54.13;95361.47;5018376;28;20510;-60
2023/09/30 02:44:10;;;;;;;15.07;6.67;;;17.20;82.10;;;17.51;53.86;95352.03;5020813;28;20470;-60
2023/09/30 02:46:38;;;;;;;11.83;6.20;;;17.10;82.30;;;17.48;54.21;95357.69;5018571;28;20575;-57
2023/09/30 02:49:07;;;;;;;18.63;7.23;;;17.10;82.70;;;17.44;54.70;95354.50;5019622;28;20560;-60
2023/09/30 02:51:35;;;;;;;13.33;6.27;;;17.10;83.10;;;17.42;54.56;95355.69;5018178;28;20457;-60
2023/09/30 02:54:03;;;;;;;13.80;6.87;;;17.00;83.00;;;17.38;54.88;95356.03;5019953;28;20579;-60
2023/09/30 02:56:31;;;;;;;12.27;6.67;;;17.00;83.00;;;17.34;55.02;95360.03;5018616;28;20497;-57
2023/09/30 02:58:59;;;;;;;12.03;7.47;;;17.00;83.30;;;17.31;54.70;95356.88;5022937;28;22905;-57
2023/09/30 03:01:26;;;;;;;11.77;6.63;;;16.90;83.60;;;17.26;55.01;95360.06;5021605;28;20463;-56
2023/09/30 03:03:53;;;;;;;14.80;6.57;;;16.90;84.00;;;17.20;55.13;95358.88;5019934;28;20479;-60
2023/09/30 03:06:22;;;;;;;8.00;6.60;;;16.90;84.40;;;17.16;55.42;95360.22;5021947;28;20457;-55
2023/09/30 03:08:49;;;;;;;10.67;5.63;;;16.80;84.60;;;17.13;55.21;95359.72;5019935;28;20453;-57
2023/09/30 03:11:16;;;;;;;11.53;5.93;;;16.80;84.90;;;17.10;55.42;95362.72;5019114;28;20498;-61
2023/09/30 03:13:44;;;;;;;16.23;6.37;;;16.70;84.70;;;17.06;55.34;95359.59;5019369;28;20524;-60
2023/09/30 03:16:11;;;;;;;16.60;6.63;;;16.70;85.20;;;17.02;55.30;95355.59;5016174;28;20461;-61
2023/09/30 03:18:38;;;;;;;14.20;6.03;;;16.60;85.30;;;16.99;55.39;95358.59;5021454;28;20461;-56
2023/09/30 03:21:14;;;;;;;10.07;6.10;;;16.60;85.50;;;16.96;55.63;95358.91;5016038;28;20992;-61
2023/09/30 03:23:43;;;;;;;35.60;9.10;;;16.60;85.90;;;16.93;55.81;95359.25;5018096;28;20445;-57
2023/09/30 03:26:10;;;;;;;21.93;9.80;;;16.60;86.00;;;16.90;55.61;95354.28;5019590;28;20526;-56
2023/09/30 03:28:38;;;;;;;15.00;8.00;;;16.50;86.00;;;16.86;55.62;95351.13;5021184;28;20541;-56
2023/09/30 03:31:05;;;;;;;13.13;7.10;;;16.50;86.10;;;16.84;55.62;95353.09;5020030;28;20512;-57
2023/09/30 03:33:33;;;;;;;14.93;7.10;;;16.50;86.30;;;16.81;55.85;95356.91;5017785;28;20992;-60
2023/09/30 03:36:00;;;;;;;19.30;7.27;;;16.50;87.00;;;16.80;55.93;95354.41;5018844;28;20469;-57
2023/09/30 03:38:28;;;;;;;18.73;8.27;;;16.40;87.00;;;16.78;56.15;95354.59;5019646;28;20460;-61
2023/09/30 03:40:58;;;;;;;19.47;7.73;;;16.40;87.50;;;16.76;56.14;95353.94;5021901;28;20485;-56
2023/09/30 03:43:26;;;;;;;30.37;7.63;;;16.40;87.80;;;16.74;56.33;95347.94;5024332;28;20991;-59
2023/09/30 03:45:55;;;;;;;30.27;8.13;;;16.40;88.20;;;16.73;56.82;95353.41;5026725;28;20477;-60
2023/09/30 03:48:22;;;;;;;12.73;7.60;;;16.40;88.70;;;16.70;56.62;95354.59;5023385;28;20455;-57
2023/09/30 03:50:51;;;;;;;9.97;6.47;;;16.30;88.50;;;16.68;57.03;95351.25;5018147;28;20477;-59
2023/09/30 03:53:19;;;;;;;13.70;6.57;;;16.30;89.00;;;16.66;56.46;95351.41;5025706;28;20907;-60
2023/09/30 03:55:47;;;;;;;12.80;7.60;;;16.30;89.10;;;16.65;56.68;95349.78;5016948;28;20473;-60
2023/09/30 03:58:18;;;;;;;23.73;6.70;;;16.30;90.10;;;16.65;56.70;95346.28;5026530;28;20457;-56
2023/09/30 04:00:46;;;;;;;15.90;7.27;;;16.30;89.90;;;16.62;56.96;95342.16;5022611;28;20496;-60
2023/09/30 04:03:13;;;;;;;13.80;6.00;;;16.30;90.10;;;16.61;56.95;95347.63;5025537;28;20486;-57
2023/09/30 04:05:41;;;;;;;10.23;6.30;;;16.20;90.00;;;16.58;57.08;95342.63;5021362;28;20499;-60
2023/09/30 04:08:08;;;;;;;20.50;6.53;;;16.20;90.00;;;16.53;56.89;95347.59;5018691;28;20455;-61
2023/09/30 04:10:36;;;;;;;12.57;6.23;;;16.20;90.00;;;16.48;56.94;95354.25;5024852;28;20464;-60
2023/09/30 04:13:03;;;;;;;11.70;5.80;;;16.10;90.00;;;16.45;56.82;95351.91;5016815;28;20465;-58
2023/09/30 04:15:32;;;;;;;17.37;7.07;;;16.10;90.10;;;16.44;56.78;95362.72;5021610;28;20566;-61
2023/09/30 04:18:00;;;;;;;16.47;8.03;;;16.10;90.10;;;16.40;56.75;95358.72;5019344;28;20469;-58
2023/09/30 04:20:29;;;;;;;14.73;7.47;;;16.10;90.20;;;16.37;56.99;95370.47;5022573;28;20472;-57
2023/09/30 04:22:57;;;;;;;10.80;7.30;;;16.00;90.30;;;16.34;57.29;95370.78;5022671;28;20468;-60
2023/09/30 04:25:25;;;;;;;15.10;8.30;;;16.00;90.50;;;16.34;57.03;95369.97;5023698;28;20560;-60
2023/09/30 04:27:53;;;;;;;14.40;6.97;;;16.00;90.50;;;16.33;57.03;95365.66;5018500;28;20462;-60
2023/09/30 04:30:22;;;;;;;19.67;7.80;;;15.90;90.40;;;16.33;57.08;95374.47;5018144;28;20472;-60
2023/09/30 04:32:50;;;;;;;16.90;7.53;;;16.00;90.50;;;16.29;57.11;95378.44;5022234;28;20453;-59
2023/09/30 04:35:18;;;;;;;12.60;8.13;;;15.90;90.40;;;16.26;57.12;95379.56;5023223;28;20919;-60
2023/09/30 04:37:46;;;;;;;14.73;7.70;;;15.90;90.40;;;16.23;57.20;95373.78;5022122;28;20449;-61
2023/09/30 04:40:15;;;;;;;18.33;8.53;;;15.90;90.60;;;16.22;57.32;95382.72;5018361;28;20509;-61
2023/09/30 04:42:43;;;;;;;12.90;8.20;;;15.90;90.90;;;16.22;57.52;95385.38;5017220;28;20461;-56
2023/09/30 04:45:12;;;;;;;17.63;7.20;;;15.90;91.00;;;16.21;57.41;95381.06;5025728;28;20912;-59
2023/09/30 04:47:39;;;;;;;17.70;8.53;;;15.90;91.10;;;16.21;57.63;95389.03;5022001;28;20455;-61
2023/09/30 04:50:11;;;;;;;23.83;9.47;;;15.80;91.10;;;16.21;57.45;95386.38;5021536;28;20543;-56
2023/09/30 04:52:38;;;;;;;16.17;8.23;;;15.90;91.00;;;16.21;57.45;95392.50;5022415;28;20961;-57
2023/09/30 04:55:07;;;;;;;23.57;10.07;;;15.90;91.00;;;16.24;57.41;95394.84;5019341;28;20503;-56
2023/09/30 04:57:35;;;;;;;17.87;8.60;;;15.90;91.10;;;16.26;57.53;95392.84;5019775;28;20450;-60
2023/09/30 05:00:10;;;;;;;30.20;9.83;;;15.90;91.20;;;16.28;57.46;95393.53;5022373;28;20489;-58
2023/09/30 05:02:37;;;;;;;21.47;9.30;;;15.90;91.10;;;16.31;57.45;95389.72;5020922;28;20444;-58
2023/09/30 05:05:06;;;;;;;19.53;8.63;;;15.90;91.20;;;16.35;57.41;95396.38;5023861;28;20477;-61
2023/09/30 05:07:35;;;;;;;24.53;9.60;;;16.00;91.20;;;16.40;57.23;95396.69;5020246;28;20488;-62
2023/09/30 05:10:05;;;;;;;21.70;9.93;;;16.00;91.10;;;16.43;57.33;95396.38;5020029;28;20477;-61
2023/09/30 05:12:32;;;;;;;21.87;9.53;;;16.10;91.20;;;16.48;57.10;95399.38;5026850;28;20441;-60
2023/09/30 05:15:00;;;;;;;12.97;7.97;;;16.10;91.20;;;16.52;57.12;95407.03;5018916;28;20580;-60
2023/09/30 05:17:29;;;;;;;13.63;7.40;;;16.10;91.50;;;16.55;56.95;95401.38;5023585;28;20452;-60
2023/09/30 05:19:57;;;;;;;29.87;9.23;;;16.20;91.10;;;16.57;57.14;95396.75;5020949;28;20567;-57
2023/09/30 05:22:25;;;;;;;26.60;13.20;;;16.20;91.10;;;16.61;56.83;95401.56;5024230;28;20461;-59
2023/09/30 05:24:54;;;;;;;39.60;16.07;;;16.20;91.00;;;16.64;56.85;95409.19;5021773;28;20564;-62
2023/09/30 05:27:21;;;;;;;36.53;19.10;;;16.30;90.80;;;16.70;56.41;95402.41;5024206;28;20457;-58
2023/09/30 05:29:48;;;;;;;69.53;20.00;;;16.30;90.70;;;16.75;56.61;95400.06;5023177;28;20464;-62
2023/09/30 05:32:16;;;;;;;57.40;22.13;;;16.40;90.70;;;16.83;56.75;95407.22;5021973;28;20463;-58
2023/09/30 05:34:43;;;;;;;34.60;20.77;;;16.50;90.60;;;16.93;56.28;95417.72;5017763;28;20499;-62
2023/09/30 05:37:12;;;;;;;35.70;21.20;;;16.50;90.50;;;17.00;56.41;95411.56;5023023;28;20552;-62
2023/09/30 05:39:39;;;;;;;41.57;20.70;;;16.60;90.40;;;17.11;55.78;95421.03;5019094;28;20480;-58
2023/09/30 05:42:07;;;;;;;29.40;18.57;;;16.70;90.20;;;17.20;55.87;95420.03;5019039;28;20556;-61
2023/09/30 05:44:35;;;;;;;26.80;16.37;;;16.80;90.10;;;17.33;55.98;95418.69;5021382;28;20472;-62
2023/09/30 05:47:02;;;;;;;42.63;16.70;;;16.90;90.00;;;17.48;55.60;95422.31;5022486;28;20846;-62
2023/09/30 05:49:29;;;;;;;38.20;14.50;;;17.00;89.30;;;17.66;54.83;95430.13;5017049;28;20601;-62
2023/09/30 05:51:56;;;;;;;21.83;13.13;;;17.20;89.50;;;17.84;54.62;95424.56;5018092;28;20471;-59
2023/09/30 05:54:24;;;;;;;35.83;16.73;;;17.30;89.10;;;18.04;54.72;95417.03;5017522;28;20582;-63
2023/09/30 05:56:51;;;;;;;31.43;16.57;;;17.50;88.80;;;18.27;54.09;95417.09;5019188;28;20538;-62
2023/09/30 05:59:20;;;;;;;29.23;14.83;;;17.70;88.50;;;18.49;54.21;95420.00;5024955;28;20596;-62
2023/09/30 06:01:47;;;;;;;39.67;15.37;;;17.90;87.50;;;18.72;53.93;95425.34;5021625;28;20948;-62
2023/09/30 06:04:14;;;;;;;20.20;14.00;;;18.20;87.10;;;18.95;53.36;95424.56;5018339;28;21010;-59
2023/09/30 06:06:42;;;;;;;42.17;15.30;;;18.40;86.20;;;19.17;53.03;95426.38;5021188;28;20465;-63
2023/09/30 06:09:10;;;;;;;60.90;16.50;;;18.60;85.40;;;19.45;52.24;95424.97;5021974;28;20867;-58
2023/09/30 06:11:37;;;;;;;18.00;13.20;;;18.90;85.00;;;19.80;51.77;95439.50;5013909;28;20454;-62
2023/09/30 06:14:06;;;;;;;22.07;13.50;;;19.20;83.70;;;20.15;50.96;95436.28;5024422;28;21074;-66
2023/09/30 06:16:34;;;;;;;47.43;14.00;;;19.50;82.60;;;20.50;50.51;95436.50;5022505;28;20880;-58
2023/09/30 06:19:02;;;;;;;19.13;11.93;;;19.80;81.60;;;20.86;50.13;95430.34;5017481;28;20478;-57
2023/09/30 06:21:31;;;;;;;16.80;11.67;;;20.20;80.70;;;21.21;49.32;95436.66;5024463;28;21184;-59
2023/09/30 06:23:58;;;;;;;33.63;12.40;;;20.60;79.80;;;21.53;48.65;95431.78;5022425;28;20453;-58
2023/09/30 06:26:28;;;;;;;14.60;9.77;;;20.90;78.60;;;21.83;47.92;95429.75;5024451;28;20507;-62
2023/09/30 06:28:56;;;;;;;17.27;10.40;;;21.10;77.20;;;22.18;47.36;95429.75;5022488;28;20441;-58
2023/09/30 06:31:24;;;;;;;19.13;10.07;;;21.50;76.30;;;22.55;47.09;95437.56;5021618;28;20498;-59
2023/09/30 06:33:56;;;;;;;29.27;9.37;;;21.80;75.20;;;22.91;46.13;95437.25;5019544;28;21115;-61
2023/09/30 06:36:23;;;;;;;24.40;10.47;;;22.20;74.20;;;23.27;46.07;95435.28;5024939;28;20976;-57
2023/09/30 06:38:52;;;;;;;13.03;9.57;;;22.60;73.50;;;23.60;45.48;95442.50;5024999;28;20461;-58
2023/09/30 06:41:19;;;;;;;18.23;9.70;;;22.90;72.10;;;23.87;44.01;95439.84;5021264;28;20457;-59
2023/09/30 06:43:47;;;;;;;16.87;9.57;;;23.20;70.10;;;24.09;44.13;95443.09;5021237;28;20551;-58
2023/09/30 06:46:15;;;;;;;20.37;10.10;;;23.40;69.30;;;24.37;43.76;95441.97;5017507;28;20975;-56
2023/09/30 06:48:42;;;;;;;18.40;9.40;;;23.60;68.80;;;24.72;42.74;95444.38;5020901;28;20445;-57
2023/09/30 06:51:15;;;;;;;42.27;9.33;;;24.00;68.40;;;25.13;42.33;95445.78;5018168;28;20685;-61
2023/09/30 06:53:42;;;;;;;30.60;7.73;;;24.40;67.50;;;25.51;41.71;95445.75;5019879;28;20438;-60
2023/09/30 06:56:09;;;;;;;14.43;8.17;;;24.80;66.50;;;25.91;41.13;95434.63;5021241;28;20511;-61
2023/09/30 06:58:36;;;;;;;13.53;7.77;;;25.20;65.30;;;26.33;40.61;95444.81;5017023;28;20523;-62
2023/09/30 07:01:03;;;;;;;13.50;7.17;;;25.60;63.80;;;26.76;40.20;95451.19;5020527;28;20885;-59
2023/09/30 07:03:32;;;;;;;14.97;7.20;;;25.90;62.90;;;27.22;39.40;95448.91;5020710;28;20613;-60
2023/09/30 07:06:01;;;;;;;52.03;6.87;;;26.40;62.20;;;27.69;38.75;95451.75;5024040;28;20551;-61
2023/09/30 07:08:30;;;;;;;29.20;6.30;;;26.80;61.10;;;28.16;37.85;95459.88;5020497;28;20456;-61
2023/09/30 07:10:58;;;;;;;9.50;6.63;;;27.30;60.00;;;28.61;37.91;95456.59;5019405;28;20558;-62
2023/09/30 07:13:25;;;;;;;18.20;7.10;;;27.70;59.20;;;29.09;37.58;95453.69;5016257;28;20484;-58
2023/09/30 07:15:53;;;;;;;14.53;6.70;;;28.20;58.20;;;29.56;36.59;95448.06;5020576;28;20853;-62
2023/09/30 07:18:20;;;;;;;19.40;6.90;;;28.70;57.50;;;29.99;35.67;95443.91;5027201;28;21207;-61
2023/09/30 07:20:47;;;;;;;20.37;6.80;;;29.10;56.30;;;30.41;35.55;95444.50;5021812;28;21182;-67
2023/09/30 07:23:14;;;;;;;9.90;6.00;;;29.50;55.80;;;30.76;35.37;95457.72;5025915;28;20452;-65
2023/09/30 07:25:43;;;;;;;11.30;5.30;;;29.90;56.30;;;31.14;35.02;95452.47;5020773;28;20210;-60
2023/09/30 07:28:11;;;;;;;13.90;5.53;;;30.40;55.70;;;31.47;35.47;95451.44;5021694;28;20206;-64
2023/09/30 07:30:40;;;;;;;25.00;6.00;;;30.80;55.30;;;31.76;34.91;95460.16;5025119;28;20328;-59
2023/09/30 07:33:08;;;;;;;12.47;5.37;;;31.20;54.50;;;32.00;34.21;95457.06;5021549;28;20202;-60
2023/09/30 07:35:35;;;;;;;22.80;5.03;;;31.50;53.60;;;32.17;34.17;95459.66;5021691;28;20245;-63
2023/09/30 07:38:03;;;;;;;24.20;4.90;;;31.80;52.10;;;32.33;33.42;95452.41;5022019;28;20205;-63
2023/09/30 07:40:30;;;;;;;12.18;6.15;;;32.00;52.00;;;32.48;33.41;95460.66;5021485;28;20230;-63
2023/09/30 07:42:59;;;;;;;8.70;4.93;;;32.20;51.70;;;32.63;33.23;95456.41;5023622;28;20198;-59
2023/09/30 07:45:26;;;;;;;14.77;5.43;;;32.30;51.50;;;32.79;33.25;95451.88;5031898;28;20292;-64
2023/09/30 07:47:54;;;;;;;12.75;4.68;;;32.50;50.90;;;32.96;32.89;95457.09;5028698;28;20198;-63
2023/09/30 07:50:21;;;;;;;8.35;4.15;;;32.60;50.30;;;33.09;32.57;95459.31;5022173;28;20241;-64
2023/09/30 07:52:49;;;;;;;10.65;4.20;;;32.70;50.10;;;33.23;31.96;95460.47;5021550;28;20686;-62
2023/09/30 07:55:16;;;;;;;19.15;4.90;;;32.80;49.60;;;33.38;32.45;95456.13;5022372;28;20233;-63
2023/09/30 07:57:45;;;;;;;9.50;4.95;;;33.00;49.40;;;33.54;31.84;95463.28;5021802;28;20202;-59
2023/09/30 08:00:21;;;;;;;10.63;4.70;;;33.10;48.90;;;33.72;31.49;95452.94;5022265;28;20249;-58
2023/09/30 08:02:48;;;;;;;9.13;3.60;;;33.20;48.60;;;33.87;31.07;95444.75;5022803;28;20572;-63
2023/09/30 08:05:16;;;;;;;10.50;4.00;;;33.40;48.20;;;33.97;31.17;95454.84;5020287;28;20315;-57
2023/09/30 08:07:44;;;;;;;36.97;4.25;;;33.50;47.30;;;34.05;30.02;95458.91;5022248;28;20648;-63
2023/09/30 08:10:13;;;;;;;17.75;5.00;;;33.60;47.40;;;34.15;29.70;95452.66;5021508;28;20228;-62
2023/09/30 08:12:40;;;;;;;9.65;4.50;;;33.70;47.00;;;34.26;29.42;95448.84;5027578;28;20279;-59
2023/09/30 08:15:11;;;;;;;11.88;4.38;;;33.70;46.30;;;34.38;28.85;95453.97;5027299;28;20332;-59
2023/09/30 08:17:40;;;;;;;15.13;5.05;;;33.90;45.10;;;34.44;28.69;95452.88;5023924;28;20193;-60
2023/09/30 08:20:09;;;;;;;15.57;4.72;;;33.90;45.10;;;34.51;28.87;95447.13;5026661;28;20659;-63
2023/09/30 08:22:36;;;;;;;9.90;4.80;;;33.90;44.70;;;34.58;28.74;95450.38;5021379;28;20233;-62
2023/09/30 08:25:06;;;;;;;11.85;4.28;;;34.00;44.40;;;34.65;28.21;95448.16;5022219;28;20226;-57
2023/09/30 08:27:33;;;;;;;4.45;4.05;;;34.00;44.50;;;34.77;28.64;95447.91;5018440;28;20236;-60
2023/09/30 08:30:04;;;;;;;6.75;4.57;;;34.10;43.90;;;34.85;28.23;95447.31;5021070;28;20279;-59
2023/09/30 08:32:34;;;;;;;8.40;5.68;;;34.10;43.70;;;34.93;27.07;95452.19;5022392;28;20276;-62
2023/09/30 08:35:04;;;;;;;14.45;6.25;;;34.20;43.20;;;34.97;27.03;95453.25;5023229;28;20242;-62
2023/09/30 08:37:31;;;;;;;19.95;6.38;;;34.20;43.20;;;34.99;26.47;95455.72;5021751;28;20216;-59
2023/09/30 08:39:58;;;;;;;18.13;6.20;;;34.20;42.00;;;34.96;26.80;95443.41;5018726;28;20305;-58
2023/09/30 08:42:26;;;;;;;20.65;5.97;;;34.20;41.50;;;34.92;26.64;95441.53;5026533;28;20201;-58
2023/09/30 08:44:54;;;;;;;19.52;7.65;;;34.20;41.00;;;34.78;25.59;95438.56;5023718;28;20213;-58
2023/09/30 08:47:22;;;;;;;13.70;6.50;;;34.10;39.60;;;34.46;25.83;95443.31;5020746;28;20197;-60
2023/09/30 08:49:50;;;;;;;14.32;6.30;;;33.90;39.60;;;34.20;25.56;95438.97;5023118;28;20264;-63
2023/09/30 08:52:18;;;;;;;16.20;6.38;;;33.50;40.10;;;34.13;26.26;95436.53;5021263;28;20292;-63
2023/09/30 08:54:45;;;;;;;10.85;6.20;;;33.40;40.20;;;34.11;26.10;95434.09;5020713;28;20229;-61
2023/09/30 08:57:13;;;;;;;11.93;6.82;;;33.30;40.10;;;33.99;25.80;95443.63;5020603;28;20738;-58
2023/09/30 08:59:40;;;;;;;13.57;7.32;;;33.30;39.10;;;33.73;25.10;95432.75;5022663;28;20322;-61
2023/09/30 09:02:08;;;;;;;17.23;6.75;;;33.10;38.90;;;33.56;25.86;95431.06;5019310;28;20570;-59
2023/09/30 09:04:35;;;;;;;13.77;7.65;;;32.90;39.40;;;33.58;25.46;95430.78;5023535;28;20226;-67
2023/09/30 09:07:02;;;;;;;10.00;6.80;;;32.80;39.50;;;33.67;25.77;95422.91;5021853;28;20209;-62
2023/09/30 09:09:32;;;;;;;15.40;5.90;;;32.90;39.40;;;33.80;25.58;95419.63;5021002;28;20642;-63
2023/09/30 09:11:59;;;;;;;11.57;6.20;;;33.00;39.90;;;33.92;24.88;95417.44;5021104;28;20205;-63
2023/09/30 09:14:38;;;;;;;18.77;6.50;;;33.10;39.40;;;33.99;24.88;95421.81;5020221;28;20787;-63
2023/09/30 09:17:07;;;;;;;17.92;7.30;;;33.20;39.00;;;34.04;25.62;95424.53;5018718;28;20218;-61
2023/09/30 09:19:35;;;;;;;12.65;5.30;;;33.20;38.80;;;34.10;25.43;95423.44;5021855;28;20225;-61
2023/09/30 09:22:04;;;;;;;13.93;6.65;;;33.30;38.80;;;34.08;24.67;95412.81;5022940;28;20208;-62
2023/09/30 09:24:34;;;;;;;14.55;5.78;;;33.30;38.70;;;34.03;24.92;95415.50;5019952;28;20264;-62
2023/09/30 09:27:08;;;;;;;7.53;5.70;;;33.20;37.90;;;34.00;24.04;95407.06;5021726;28;20205;-59
2023/09/30 09:29:36;;;;;;;16.80;6.07;;;33.20;37.90;;;33.97;24.62;95407.63;5015784;28;20222;-57
2023/09/30 09:32:13;;;;;;;10.10;5.15;;;33.20;37.10;;;33.88;23.04;95401.88;5021401;28;20647;-58
2023/09/30 09:34:40;;;;;;;12.20;5.47;;;33.10;36.50;;;33.75;25.02;95400.53;5018451;28;20640;-57
2023/09/30 09:37:16;;;;;;;14.68;6.85;;;33.00;38.00;;;33.71;24.93;95404.88;5019262;28;20237;-63
2023/09/30 09:39:56;;;;;;;13.75;5.57;;;32.90;38.30;;;33.59;24.31;95397.78;5024753;28;20225;-62
2023/09/30 09:42:28;;;;;;;12.13;5.15;;;32.90;37.60;;;33.44;24.37;95402.44;5022318;28;20662;-60
2023/09/30 09:44:58;;;;;;;14.57;6.13;;;32.80;37.90;;;33.34;24.32;95398.59;5020848;28;20288;-63
2023/09/30 09:47:25;;;;;;;10.13;5.00;;;32.60;37.90;;;33.28;24.76;95404.31;5017068;28;20205;-62
2023/09/30 09:49:54;;;;;;;8.40;5.00;;;32.50;38.20;;;33.16;24.46;95390.91;5018980;28;20237;-60
2023/09/30 09:52:22;;;;;;;11.70;4.25;;;32.40;37.90;;;33.15;25.09;95398.25;5018481;28;20206;-62
2023/09/30 09:54:51;;;;;;;19.08;5.65;;;32.40;38.20;;;33.06;24.70;95389.81;5021818;28;20218;-61
2023/09/30 09:57:19;;;;;;;14.25;5.05;;;32.30;38.00;;;33.00;25.00;95393.63;5018819;28;20229;-63
2023/09/30 09:59:47;;;;;;;14.05;5.70;;;32.20;38.20;;;32.96;24.92;95388.97;5021508;28;20666;-63
2023/09/30 10:02:15;;;;;;;8.95;4.53;;;32.20;38.10;;;32.98;25.03;95384.06;5019392;28;20584;-61
2023/09/30 10:04:43;;;;;;;36.85;26.45;;;32.20;38.30;;;33.01;24.54;95383.53;5025034;28;20218;-58
2023/09/30 10:07:15;;;;;;;17.55;7.28;;;32.20;38.10;;;32.88;25.00;95376.69;5021782;28;20236;-62
2023/09/30 10:09:46;;;;;;;15.18;5.35;;;32.20;37.80;;;32.67;24.65;95375.81;5022668;28;20802;-63
2023/09/30 10:12:15;;;;;;;18.42;6.60;;;32.10;38.00;;;32.53;24.95;95381.72;5018886;28;20249;-62
2023/09/30 10:14:43;;;;;;;21.02;5.60;;;31.90;38.00;;;32.51;24.97;95364.00;5026439;28;20572;-61
2023/09/30 10:17:11;;;;;;;13.93;4.53;;;31.80;38.20;;;32.53;24.92;95359.94;5023295;28;20221;-60